sensor_id;sensor_type;location;lat;lon;timestamp;temperature;humidity
14585;DHT22;7379;51.506;11.876;2023-04-25T00:01:31;12.60;57.90
14585;DHT22;7379;51.506;11.876;2023-04-25T00:03:59;12.50;57.90
14585;DHT22;7379;51.506;11.876;2023-04-25T00:06:26;12.50;57.90
14585;DHT22;7379;51.506;11.876;2023-04-25T00:08:55;12.50;57.90
14585;DHT22;7379;51.506;11.876;2023-04-25T00:11:22;12.50;58.00
14585;DHT22;7379;51.506;11.876;2023-04-25T00:13:49;12.50;58.00
14585;DHT22;7379;51.506;11.876;2023-04-25T00:16:17;12.50;58.00
14585;DHT22;7379;51.506;11.876;2023-04-25T00:18:43;12.50;58.00
14585;DHT22;7379;51.506;11.876;2023-04-25T00:21:11;12.50;58.10
14585;DHT22;7379;51.506;11.876;2023-04-25T00:23:38;12.50;58.10
14585;DHT22;7379;51.506;11.876;2023-04-25T00:26:06;12.40;58.00
14585;DHT22;7379;51.506;11.876;2023-04-25T00:28:33;12.40;58.10
14585;DHT22;7379;51.506;11.876;2023-04-25T00:31:00;12.40;58.10
14585;DHT22;7379;51.506;11.876;2023-04-25T00:33:26;12.40;58.10
14585;DHT22;7379;51.506;11.876;2023-04-25T00:35:54;12.40;58.20
14585;DHT22;7379;51.506;11.876;2023-04-25T00:38:20;12.40;58.20
14585;DHT22;7379;51.506;11.876;2023-04-25T00:40:47;12.30;58.10
14585;DHT22;7379;51.506;11.876;2023-04-25T00:43:16;12.30;58.10
14585;DHT22;7379;51.506;11.876;2023-04-25T00:45:43;12.30;58.10
14585;DHT22;7379;51.506;11.876;2023-04-25T00:48:10;12.30;58.20
14585;DHT22;7379;51.506;11.876;2023-04-25T00:50:37;12.30;58.20
14585;DHT22;7379;51.506;11.876;2023-04-25T00:53:04;12.30;58.20
14585;DHT22;7379;51.506;11.876;2023-04-25T00:55:31;12.30;58.20
14585;DHT22;7379;51.506;11.876;2023-04-25T00:58:00;12.20;58.10
14585;DHT22;7379;51.506;11.876;2023-04-25T01:00:28;12.30;58.30
14585;DHT22;7379;51.506;11.876;2023-04-25T01:02:55;12.20;58.20
14585;DHT22;7379;51.506;11.876;2023-04-25T01:05:22;12.20;58.20
14585;DHT22;7379;51.506;11.876;2023-04-25T01:07:49;12.20;58.80
14585;DHT22;7379;51.506;11.876;2023-04-25T01:10:16;12.20;58.20
14585;DHT22;7379;51.506;11.876;2023-04-25T01:12:42;12.20;58.30
14585;DHT22;7379;51.506;11.876;2023-04-25T01:15:10;12.20;58.30
14585;DHT22;7379;51.506;11.876;2023-04-25T01:17:38;12.10;58.20
14585;DHT22;7379;51.506;11.876;2023-04-25T01:20:07;12.10;58.20
14585;DHT22;7379;51.506;11.876;2023-04-25T01:22:37;12.10;58.20
14585;DHT22;7379;51.506;11.876;2023-04-25T01:25:04;12.10;58.30
14585;DHT22;7379;51.506;11.876;2023-04-25T01:27:32;12.10;58.30
14585;DHT22;7379;51.506;11.876;2023-04-25T01:29:59;12.10;58.30
14585;DHT22;7379;51.506;11.876;2023-04-25T01:32:26;12.10;58.30
14585;DHT22;7379;51.506;11.876;2023-04-25T01:34:53;12.00;58.20
14585;DHT22;7379;51.506;11.876;2023-04-25T01:37:20;12.00;58.20
14585;DHT22;7379;51.506;11.876;2023-04-25T01:39:48;12.00;58.90
14585;DHT22;7379;51.506;11.876;2023-04-25T01:42:15;12.00;58.30
14585;DHT22;7379;51.506;11.876;2023-04-25T01:44:42;12.00;58.30
14585;DHT22;7379;51.506;11.876;2023-04-25T01:47:09;12.00;58.30
14585;DHT22;7379;51.506;11.876;2023-04-25T01:49:36;12.00;58.30
14585;DHT22;7379;51.506;11.876;2023-04-25T01:52:03;11.90;58.30
14585;DHT22;7379;51.506;11.876;2023-04-25T01:54:30;11.90;58.30
14585;DHT22;7379;51.506;11.876;2023-04-25T01:56:59;11.90;58.20
14585;DHT22;7379;51.506;11.876;2023-04-25T01:59:26;11.90;58.30
14585;DHT22;7379;51.506;11.876;2023-04-25T02:01:52;11.90;58.20
14585;DHT22;7379;51.506;11.876;2023-04-25T02:04:19;11.90;58.30
14585;DHT22;7379;51.506;11.876;2023-04-25T02:06:46;11.90;58.30
14585;DHT22;7379;51.506;11.876;2023-04-25T02:09:13;11.80;58.20
14585;DHT22;7379;51.506;11.876;2023-04-25T02:11:39;11.80;58.20
14585;DHT22;7379;51.506;11.876;2023-04-25T02:14:07;11.80;58.20
14585;DHT22;7379;51.506;11.876;2023-04-25T02:16:34;11.80;58.30
14585;DHT22;7379;51.506;11.876;2023-04-25T02:19:02;11.80;58.30
14585;DHT22;7379;51.506;11.876;2023-04-25T02:21:29;11.80;58.30
14585;DHT22;7379;51.506;11.876;2023-04-25T02:23:56;11.80;58.30
14585;DHT22;7379;51.506;11.876;2023-04-25T02:26:23;11.70;58.20
14585;DHT22;7379;51.506;11.876;2023-04-25T02:28:50;11.70;58.20
14585;DHT22;7379;51.506;11.876;2023-04-25T02:31:18;11.70;58.20
14585;DHT22;7379;51.506;11.876;2023-04-25T02:33:45;11.70;58.20
14585;DHT22;7379;51.506;11.876;2023-04-25T02:36:12;11.70;58.20
14585;DHT22;7379;51.506;11.876;2023-04-25T02:38:39;11.60;58.20
14585;DHT22;7379;51.506;11.876;2023-04-25T02:41:05;11.60;58.20
14585;DHT22;7379;51.506;11.876;2023-04-25T02:43:32;11.60;58.20
14585;DHT22;7379;51.506;11.876;2023-04-25T02:45:59;11.60;58.20
14585;DHT22;7379;51.506;11.876;2023-04-25T02:48:27;11.60;58.50
14585;DHT22;7379;51.506;11.876;2023-04-25T02:50:54;11.50;58.30
14585;DHT22;7379;51.506;11.876;2023-04-25T02:53:21;11.50;58.30
14585;DHT22;7379;51.506;11.876;2023-04-25T02:55:48;11.50;58.30
14585;DHT22;7379;51.506;11.876;2023-04-25T02:58:15;11.50;58.30
14585;DHT22;7379;51.506;11.876;2023-04-25T03:00:42;11.50;58.30
14585;DHT22;7379;51.506;11.876;2023-04-25T03:03:09;11.50;58.30
14585;DHT22;7379;51.506;11.876;2023-04-25T03:05:37;11.50;58.40
14585;DHT22;7379;51.506;11.876;2023-04-25T03:08:04;11.40;58.30
14585;DHT22;7379;51.506;11.876;2023-04-25T03:10:31;11.40;58.30
14585;DHT22;7379;51.506;11.876;2023-04-25T03:12:57;11.40;58.30
14585;DHT22;7379;51.506;11.876;2023-04-25T03:15:24;11.40;58.40
14585;DHT22;7379;51.506;11.876;2023-04-25T03:17:51;11.40;58.40
14585;DHT22;7379;51.506;11.876;2023-04-25T03:20:18;11.40;58.40
14585;DHT22;7379;51.506;11.876;2023-04-25T03:22:46;11.40;58.40
14585;DHT22;7379;51.506;11.876;2023-04-25T03:25:13;11.30;58.40
14585;DHT22;7379;51.506;11.876;2023-04-25T03:27:39;11.30;58.40
14585;DHT22;7379;51.506;11.876;2023-04-25T03:30:07;11.30;58.40
14585;DHT22;7379;51.506;11.876;2023-04-25T03:32:34;11.30;58.40
14585;DHT22;7379;51.506;11.876;2023-04-25T03:35:01;11.30;58.40
14585;DHT22;7379;51.506;11.876;2023-04-25T03:37:28;11.30;58.40
14585;DHT22;7379;51.506;11.876;2023-04-25T03:39:56;11.30;58.40
14585;DHT22;7379;51.506;11.876;2023-04-25T03:42:23;11.30;58.40
14585;DHT22;7379;51.506;11.876;2023-04-25T03:44:51;11.20;58.30
14585;DHT22;7379;51.506;11.876;2023-04-25T03:47:18;11.20;58.30
14585;DHT22;7379;51.506;11.876;2023-04-25T03:49:45;11.20;58.30
14585;DHT22;7379;51.506;11.876;2023-04-25T03:52:11;11.20;58.30
14585;DHT22;7379;51.506;11.876;2023-04-25T03:54:38;11.20;58.40
14585;DHT22;7379;51.506;11.876;2023-04-25T03:57:06;11.20;58.40
14585;DHT22;7379;51.506;11.876;2023-04-25T03:59:33;11.10;58.30
14585;DHT22;7379;51.506;11.876;2023-04-25T04:02:00;11.10;58.30
14585;DHT22;7379;51.506;11.876;2023-04-25T04:04:27;11.10;58.40
14585;DHT22;7379;51.506;11.876;2023-04-25T04:06:53;11.10;58.40
14585;DHT22;7379;51.506;11.876;2023-04-25T04:09:20;11.10;58.40
14585;DHT22;7379;51.506;11.876;2023-04-25T04:11:47;11.10;59.10
14585;DHT22;7379;51.506;11.876;2023-04-25T04:14:15;11.10;58.50
14585;DHT22;7379;51.506;11.876;2023-04-25T04:16:42;11.10;58.50
14585;DHT22;7379;51.506;11.876;2023-04-25T04:19:09;11.10;58.50
14585;DHT22;7379;51.506;11.876;2023-04-25T04:21:36;11.00;58.40
14585;DHT22;7379;51.506;11.876;2023-04-25T04:24:03;11.00;58.50
14585;DHT22;7379;51.506;11.876;2023-04-25T04:26:32;11.00;58.50
14585;DHT22;7379;51.506;11.876;2023-04-25T04:28:59;11.00;58.50
14585;DHT22;7379;51.506;11.876;2023-04-25T04:31:28;11.00;58.50
14585;DHT22;7379;51.506;11.876;2023-04-25T04:33:55;11.00;58.60
14585;DHT22;7379;51.506;11.876;2023-04-25T04:36:22;11.00;58.90
14585;DHT22;7379;51.506;11.876;2023-04-25T04:38:51;11.00;58.60
14585;DHT22;7379;51.506;11.876;2023-04-25T04:41:19;11.00;58.60
14585;DHT22;7379;51.506;11.876;2023-04-25T04:43:46;10.90;58.50
14585;DHT22;7379;51.506;11.876;2023-04-25T04:46:12;10.90;58.60
14585;DHT22;7379;51.506;11.876;2023-04-25T04:48:41;10.90;58.60
14585;DHT22;7379;51.506;11.876;2023-04-25T04:51:08;10.90;58.60
14585;DHT22;7379;51.506;11.876;2023-04-25T04:53:35;10.90;58.70
14585;DHT22;7379;51.506;11.876;2023-04-25T04:56:02;10.90;58.70
14585;DHT22;7379;51.506;11.876;2023-04-25T04:58:28;10.80;58.70
14585;DHT22;7379;51.506;11.876;2023-04-25T05:00:56;10.80;58.70
14585;DHT22;7379;51.506;11.876;2023-04-25T05:03:23;10.80;58.70
14585;DHT22;7379;51.506;11.876;2023-04-25T05:05:51;10.80;58.70
14585;DHT22;7379;51.506;11.876;2023-04-25T05:08:18;10.80;58.60
14585;DHT22;7379;51.506;11.876;2023-04-25T05:10:45;10.80;58.60
14585;DHT22;7379;51.506;11.876;2023-04-25T05:13:11;10.80;58.60
14585;DHT22;7379;51.506;11.876;2023-04-25T05:15:38;10.90;58.80
14585;DHT22;7379;51.506;11.876;2023-04-25T05:18:05;10.90;58.70
14585;DHT22;7379;51.506;11.876;2023-04-25T05:20:32;10.90;58.70
14585;DHT22;7379;51.506;11.876;2023-04-25T05:23:00;10.90;58.70
14585;DHT22;7379;51.506;11.876;2023-04-25T05:25:27;10.90;58.80
14585;DHT22;7379;51.506;11.876;2023-04-25T05:27:53;10.80;58.80
14585;DHT22;7379;51.506;11.876;2023-04-25T05:30:20;10.80;58.80
14585;DHT22;7379;51.506;11.876;2023-04-25T05:32:47;10.80;58.80
14585;DHT22;7379;51.506;11.876;2023-04-25T05:35:14;10.80;58.90
14585;DHT22;7379;51.506;11.876;2023-04-25T05:37:41;10.80;58.90
14585;DHT22;7379;51.506;11.876;2023-04-25T05:40:10;10.80;58.90
14585;DHT22;7379;51.506;11.876;2023-04-25T05:42:37;10.80;59.00
14585;DHT22;7379;51.506;11.876;2023-04-25T05:45:04;10.80;59.00
14585;DHT22;7379;51.506;11.876;2023-04-25T05:47:31;10.80;59.00
14585;DHT22;7379;51.506;11.876;2023-04-25T05:49:58;10.80;59.10
14585;DHT22;7379;51.506;11.876;2023-04-25T05:52:25;10.70;59.10
14585;DHT22;7379;51.506;11.876;2023-04-25T05:54:52;10.80;59.20
14585;DHT22;7379;51.506;11.876;2023-04-25T05:57:22;10.70;59.10
14585;DHT22;7379;51.506;11.876;2023-04-25T05:59:48;10.70;59.20
14585;DHT22;7379;51.506;11.876;2023-04-25T06:02:15;10.80;59.30
14585;DHT22;7379;51.506;11.876;2023-04-25T06:04:42;10.80;59.20
14585;DHT22;7379;51.506;11.876;2023-04-25T06:07:09;10.80;59.20
14585;DHT22;7379;51.506;11.876;2023-04-25T06:09:36;10.80;59.30
14585;DHT22;7379;51.506;11.876;2023-04-25T06:12:04;10.80;59.20
14585;DHT22;7379;51.506;11.876;2023-04-25T06:14:33;11.00;59.20
14585;DHT22;7379;51.506;11.876;2023-04-25T06:17:00;11.00;59.10
14585;DHT22;7379;51.506;11.876;2023-04-25T06:19:31;11.00;59.00
14585;DHT22;7379;51.506;11.876;2023-04-25T06:21:58;11.00;59.00
14585;DHT22;7379;51.506;11.876;2023-04-25T06:24:25;11.00;59.00
14585;DHT22;7379;51.506;11.876;2023-04-25T06:26:52;11.00;59.00
14585;DHT22;7379;51.506;11.876;2023-04-25T06:29:19;10.90;59.00
14585;DHT22;7379;51.506;11.876;2023-04-25T06:31:47;10.90;59.20
14585;DHT22;7379;51.506;11.876;2023-04-25T06:34:14;10.90;59.20
14585;DHT22;7379;51.506;11.876;2023-04-25T06:36:41;10.90;59.30
14585;DHT22;7379;51.506;11.876;2023-04-25T06:39:09;10.90;59.40
14585;DHT22;7379;51.506;11.876;2023-04-25T06:41:36;10.90;59.50
14585;DHT22;7379;51.506;11.876;2023-04-25T06:44:03;10.80;59.50
14585;DHT22;7379;51.506;11.876;2023-04-25T06:46:30;10.80;59.60
14585;DHT22;7379;51.506;11.876;2023-04-25T06:48:58;10.80;59.70
14585;DHT22;7379;51.506;11.876;2023-04-25T06:51:24;10.80;59.80
14585;DHT22;7379;51.506;11.876;2023-04-25T06:53:54;10.80;59.80
14585;DHT22;7379;51.506;11.876;2023-04-25T06:56:21;10.80;60.00
14585;DHT22;7379;51.506;11.876;2023-04-25T06:58:48;10.80;60.10
14585;DHT22;7379;51.506;11.876;2023-04-25T07:01:15;10.80;60.10
14585;DHT22;7379;51.506;11.876;2023-04-25T07:03:42;10.80;60.10
14585;DHT22;7379;51.506;11.876;2023-04-25T07:06:10;10.80;60.00
14585;DHT22;7379;51.506;11.876;2023-04-25T07:08:37;10.80;60.00
14585;DHT22;7379;51.506;11.876;2023-04-25T07:11:04;10.70;59.80
14585;DHT22;7379;51.506;11.876;2023-04-25T07:13:31;10.70;59.80
14585;DHT22;7379;51.506;11.876;2023-04-25T07:15:57;10.80;59.90
14585;DHT22;7379;51.506;11.876;2023-04-25T07:18:24;10.80;59.70
14585;DHT22;7379;51.506;11.876;2023-04-25T07:20:51;10.80;59.60
14585;DHT22;7379;51.506;11.876;2023-04-25T07:23:19;10.80;59.50
14585;DHT22;7379;51.506;11.876;2023-04-25T07:25:46;10.80;59.40
14585;DHT22;7379;51.506;11.876;2023-04-25T07:28:13;10.80;59.20
14585;DHT22;7379;51.506;11.876;2023-04-25T07:30:40;10.80;59.20
14585;DHT22;7379;51.506;11.876;2023-04-25T07:33:07;10.80;59.00
14585;DHT22;7379;51.506;11.876;2023-04-25T07:35:34;10.80;58.90
14585;DHT22;7379;51.506;11.876;2023-04-25T07:38:01;10.80;58.80
14585;DHT22;7379;51.506;11.876;2023-04-25T07:40:29;10.90;58.70
14585;DHT22;7379;51.506;11.876;2023-04-25T07:42:56;10.80;58.50
14585;DHT22;7379;51.506;11.876;2023-04-25T07:45:23;10.90;58.40
14585;DHT22;7379;51.506;11.876;2023-04-25T07:47:50;10.90;58.40
14585;DHT22;7379;51.506;11.876;2023-04-25T07:50:17;11.00;58.30
14585;DHT22;7379;51.506;11.876;2023-04-25T07:52:43;11.00;58.10
14585;DHT22;7379;51.506;11.876;2023-04-25T07:55:10;11.00;58.00
14585;DHT22;7379;51.506;11.876;2023-04-25T07:57:38;11.10;57.80
14585;DHT22;7379;51.506;11.876;2023-04-25T08:00:06;11.10;57.60
14585;DHT22;7379;51.506;11.876;2023-04-25T08:02:35;11.10;57.20
14585;DHT22;7379;51.506;11.876;2023-04-25T08:05:01;11.10;57.10
14585;DHT22;7379;51.506;11.876;2023-04-25T08:07:28;11.10;57.10
14585;DHT22;7379;51.506;11.876;2023-04-25T08:09:55;11.10;57.00
14585;DHT22;7379;51.506;11.876;2023-04-25T08:12:22;11.10;57.10
14585;DHT22;7379;51.506;11.876;2023-04-25T08:14:50;11.10;57.20
14585;DHT22;7379;51.506;11.876;2023-04-25T08:17:17;11.10;57.20
14585;DHT22;7379;51.506;11.876;2023-04-25T08:19:44;11.10;57.20
14585;DHT22;7379;51.506;11.876;2023-04-25T08:22:10;11.10;57.10
14585;DHT22;7379;51.506;11.876;2023-04-25T08:24:38;11.10;57.10
14585;DHT22;7379;51.506;11.876;2023-04-25T08:27:05;11.10;57.20
14585;DHT22;7379;51.506;11.876;2023-04-25T08:29:32;11.10;57.20
14585;DHT22;7379;51.506;11.876;2023-04-25T08:32:00;11.10;57.40
14585;DHT22;7379;51.506;11.876;2023-04-25T08:34:27;11.10;57.40
14585;DHT22;7379;51.506;11.876;2023-04-25T08:36:55;11.00;57.50
14585;DHT22;7379;51.506;11.876;2023-04-25T08:39:21;11.00;57.70
14585;DHT22;7379;51.506;11.876;2023-04-25T08:41:48;11.00;57.90
14585;DHT22;7379;51.506;11.876;2023-04-25T08:44:16;10.90;58.00
14585;DHT22;7379;51.506;11.876;2023-04-25T08:46:46;10.90;58.10
14585;DHT22;7379;51.506;11.876;2023-04-25T08:49:16;10.90;58.20
14585;DHT22;7379;51.506;11.876;2023-04-25T08:51:45;10.90;58.30
14585;DHT22;7379;51.506;11.876;2023-04-25T08:54:14;10.90;58.30
14585;DHT22;7379;51.506;11.876;2023-04-25T08:56:44;10.90;58.40
14585;DHT22;7379;51.506;11.876;2023-04-25T08:59:12;10.90;58.40
14585;DHT22;7379;51.506;11.876;2023-04-25T09:01:39;10.90;58.30
14585;DHT22;7379;51.506;11.876;2023-04-25T09:04:06;10.90;58.30
14585;DHT22;7379;51.506;11.876;2023-04-25T09:06:34;10.90;58.30
14585;DHT22;7379;51.506;11.876;2023-04-25T09:09:03;10.90;58.20
14585;DHT22;7379;51.506;11.876;2023-04-25T09:11:31;10.90;58.20
14585;DHT22;7379;51.506;11.876;2023-04-25T09:14:14;10.90;58.30
14585;DHT22;7379;51.506;11.876;2023-04-25T09:17:02;10.90;58.30
14585;DHT22;7379;51.506;11.876;2023-04-25T09:19:31;10.90;58.30
14585;DHT22;7379;51.506;11.876;2023-04-25T09:22:01;10.90;58.40
14585;DHT22;7379;51.506;11.876;2023-04-25T09:24:36;10.90;59.10
14585;DHT22;7379;51.506;11.876;2023-04-25T09:27:04;10.90;58.40
14585;DHT22;7379;51.506;11.876;2023-04-25T09:29:31;10.90;58.30
14585;DHT22;7379;51.506;11.876;2023-04-25T09:32:16;10.90;58.30
14585;DHT22;7379;51.506;11.876;2023-04-25T09:34:44;10.90;58.10
14585;DHT22;7379;51.506;11.876;2023-04-25T09:37:17;11.00;58.00
14585;DHT22;7379;51.506;11.876;2023-04-25T09:39:45;11.00;57.90
14585;DHT22;7379;51.506;11.876;2023-04-25T09:42:12;11.00;57.80
14585;DHT22;7379;51.506;11.876;2023-04-25T09:44:43;11.00;57.70
14585;DHT22;7379;51.506;11.876;2023-04-25T09:47:11;11.00;57.90
14585;DHT22;7379;51.506;11.876;2023-04-25T09:49:40;10.90;57.70
14585;DHT22;7379;51.506;11.876;2023-04-25T09:52:08;11.00;57.80
14585;DHT22;7379;51.506;11.876;2023-04-25T09:54:37;11.00;57.70
14585;DHT22;7379;51.506;11.876;2023-04-25T09:57:10;11.00;57.70
14585;DHT22;7379;51.506;11.876;2023-04-25T09:59:39;11.00;57.70
14585;DHT22;7379;51.506;11.876;2023-04-25T10:02:09;11.00;57.70
14585;DHT22;7379;51.506;11.876;2023-04-25T10:04:37;11.00;57.70
14585;DHT22;7379;51.506;11.876;2023-04-25T10:07:06;11.00;57.70
14585;DHT22;7379;51.506;11.876;2023-04-25T10:09:38;10.90;57.80
14585;DHT22;7379;51.506;11.876;2023-04-25T10:12:06;11.00;57.80
14585;DHT22;7379;51.506;11.876;2023-04-25T10:14:33;11.00;57.80
14585;DHT22;7379;51.506;11.876;2023-04-25T10:17:00;11.00;57.80
14585;DHT22;7379;51.506;11.876;2023-04-25T10:19:28;10.90;57.70
14585;DHT22;7379;51.506;11.876;2023-04-25T10:22:00;10.90;57.60
14585;DHT22;7379;51.506;11.876;2023-04-25T10:24:29;10.90;57.70
14585;DHT22;7379;51.506;11.876;2023-04-25T10:26:58;10.90;57.70
14585;DHT22;7379;51.506;11.876;2023-04-25T10:29:26;10.90;57.70
14585;DHT22;7379;51.506;11.876;2023-04-25T10:31:53;10.90;57.70
14585;DHT22;7379;51.506;11.876;2023-04-25T10:34:24;10.90;57.70
14585;DHT22;7379;51.506;11.876;2023-04-25T10:36:52;10.90;57.70
14585;DHT22;7379;51.506;11.876;2023-04-25T10:39:24;10.90;57.50
14585;DHT22;7379;51.506;11.876;2023-04-25T10:45:14;11.00;57.50
14585;DHT22;7379;51.506;11.876;2023-04-25T10:47:44;10.90;57.10
14585;DHT22;7379;51.506;11.876;2023-04-25T10:50:11;10.90;57.10
14585;DHT22;7379;51.506;11.876;2023-04-25T10:52:40;10.90;57.00
14585;DHT22;7379;51.506;11.876;2023-04-25T10:55:08;10.90;56.90
14585;DHT22;7379;51.506;11.876;2023-04-25T10:57:40;10.90;56.80
14585;DHT22;7379;51.506;11.876;2023-04-25T11:00:12;10.90;56.70
14585;DHT22;7379;51.506;11.876;2023-04-25T11:02:46;10.90;56.60
14585;DHT22;7379;51.506;11.876;2023-04-25T11:05:22;10.90;56.40
14585;DHT22;7379;51.506;11.876;2023-04-25T11:07:51;10.90;56.20
14585;DHT22;7379;51.506;11.876;2023-04-25T11:10:18;11.00;56.10
14585;DHT22;7379;51.506;11.876;2023-04-25T11:12:46;10.90;55.60
14585;DHT22;7379;51.506;11.876;2023-04-25T11:15:20;11.00;55.20
14585;DHT22;7379;51.506;11.876;2023-04-25T11:17:50;11.00;54.70
14585;DHT22;7379;51.506;11.876;2023-04-25T11:20:17;11.00;54.30
14585;DHT22;7379;51.506;11.876;2023-04-25T11:22:45;11.00;54.20
14585;DHT22;7379;51.506;11.876;2023-04-25T11:25:14;11.10;54.30
14585;DHT22;7379;51.506;11.876;2023-04-25T11:27:51;11.10;54.10
14585;DHT22;7379;51.506;11.876;2023-04-25T11:30:19;11.10;54.20
14585;DHT22;7379;51.506;11.876;2023-04-25T11:32:48;11.10;54.30
14585;DHT22;7379;51.506;11.876;2023-04-25T11:35:15;11.10;54.40
14585;DHT22;7379;51.506;11.876;2023-04-25T11:37:43;11.00;54.50
14585;DHT22;7379;51.506;11.876;2023-04-25T11:40:11;11.10;54.30
14585;DHT22;7379;51.506;11.876;2023-04-25T11:42:38;11.00;53.90
14585;DHT22;7379;51.506;11.876;2023-04-25T11:45:06;11.00;53.60
14585;DHT22;7379;51.506;11.876;2023-04-25T11:47:33;11.10;53.40
14585;DHT22;7379;51.506;11.876;2023-04-25T11:50:02;11.10;53.20
14585;DHT22;7379;51.506;11.876;2023-04-25T11:52:39;11.10;53.10
14585;DHT22;7379;51.506;11.876;2023-04-25T11:55:08;11.10;53.30
14585;DHT22;7379;51.506;11.876;2023-04-25T11:57:35;11.10;53.20
14585;DHT22;7379;51.506;11.876;2023-04-25T12:00:09;11.10;52.60
14585;DHT22;7379;51.506;11.876;2023-04-25T12:02:39;11.10;52.30
14585;DHT22;7379;51.506;11.876;2023-04-25T12:05:08;11.10;52.30
14585;DHT22;7379;51.506;11.876;2023-04-25T12:07:35;11.10;52.20
14585;DHT22;7379;51.506;11.876;2023-04-25T12:10:07;11.10;51.90
14585;DHT22;7379;51.506;11.876;2023-04-25T12:12:35;11.10;51.90
14585;DHT22;7379;51.506;11.876;2023-04-25T12:15:12;11.10;52.50
14585;DHT22;7379;51.506;11.876;2023-04-25T12:17:41;11.20;51.80
14585;DHT22;7379;51.506;11.876;2023-04-25T12:20:13;11.20;51.90
14585;DHT22;7379;51.506;11.876;2023-04-25T12:22:41;11.10;51.60
14585;DHT22;7379;51.506;11.876;2023-04-25T12:25:10;11.10;51.20
14585;DHT22;7379;51.506;11.876;2023-04-25T12:27:38;11.10;51.20
14585;DHT22;7379;51.506;11.876;2023-04-25T12:30:08;11.10;50.90
14585;DHT22;7379;51.506;11.876;2023-04-25T12:32:36;11.10;51.00
14585;DHT22;7379;51.506;11.876;2023-04-25T12:35:03;11.10;50.80
14585;DHT22;7379;51.506;11.876;2023-04-25T12:37:32;11.10;50.60
14585;DHT22;7379;51.506;11.876;2023-04-25T12:39:58;11.10;50.20
14585;DHT22;7379;51.506;11.876;2023-04-25T12:42:25;11.10;50.00
14585;DHT22;7379;51.506;11.876;2023-04-25T12:44:52;11.10;49.40
14585;DHT22;7379;51.506;11.876;2023-04-25T12:47:19;11.10;48.40
14585;DHT22;7379;51.506;11.876;2023-04-25T12:49:46;11.20;48.90
14585;DHT22;7379;51.506;11.876;2023-04-25T12:52:14;11.20;48.50
14585;DHT22;7379;51.506;11.876;2023-04-25T12:54:42;11.20;47.80
14585;DHT22;7379;51.506;11.876;2023-04-25T12:57:09;11.30;47.40
14585;DHT22;7379;51.506;11.876;2023-04-25T12:59:36;11.50;46.90
14585;DHT22;7379;51.506;11.876;2023-04-25T13:02:03;11.50;46.10
14585;DHT22;7379;51.506;11.876;2023-04-25T13:04:30;11.60;46.20
14585;DHT22;7379;51.506;11.876;2023-04-25T13:06:57;11.80;46.10
14585;DHT22;7379;51.506;11.876;2023-04-25T13:09:23;12.00;46.10
14585;DHT22;7379;51.506;11.876;2023-04-25T13:11:52;11.90;45.50
14585;DHT22;7379;51.506;11.876;2023-04-25T13:14:18;11.80;46.10
14585;DHT22;7379;51.506;11.876;2023-04-25T13:16:45;11.80;46.70
14585;DHT22;7379;51.506;11.876;2023-04-25T13:19:12;11.70;46.40
14585;DHT22;7379;51.506;11.876;2023-04-25T13:21:39;11.60;45.60
14585;DHT22;7379;51.506;11.876;2023-04-25T13:24:06;11.60;45.40
14585;DHT22;7379;51.506;11.876;2023-04-25T13:26:33;11.50;45.40
14585;DHT22;7379;51.506;11.876;2023-04-25T13:29:01;11.50;45.40
14585;DHT22;7379;51.506;11.876;2023-04-25T13:31:29;11.50;45.30
14585;DHT22;7379;51.506;11.876;2023-04-25T13:33:56;11.50;45.40
14585;DHT22;7379;51.506;11.876;2023-04-25T13:36:23;11.40;45.20
14585;DHT22;7379;51.506;11.876;2023-04-25T13:38:51;11.50;45.10
14585;DHT22;7379;51.506;11.876;2023-04-25T13:41:18;11.40;45.10
14585;DHT22;7379;51.506;11.876;2023-04-25T13:43:45;11.40;45.10
14585;DHT22;7379;51.506;11.876;2023-04-25T13:46:14;11.40;45.10
14585;DHT22;7379;51.506;11.876;2023-04-25T13:48:42;11.40;45.10
14585;DHT22;7379;51.506;11.876;2023-04-25T13:51:13;11.40;45.20
14585;DHT22;7379;51.506;11.876;2023-04-25T13:53:40;11.50;45.40
14585;DHT22;7379;51.506;11.876;2023-04-25T13:56:07;11.50;45.00
14585;DHT22;7379;51.506;11.876;2023-04-25T13:58:33;11.50;44.30
14585;DHT22;7379;51.506;11.876;2023-04-25T14:01:01;11.50;44.30
14585;DHT22;7379;51.506;11.876;2023-04-25T14:03:30;11.40;44.40
14585;DHT22;7379;51.506;11.876;2023-04-25T14:05:57;11.40;44.50
14585;DHT22;7379;51.506;11.876;2023-04-25T14:08:23;11.40;44.60
14585;DHT22;7379;51.506;11.876;2023-04-25T14:10:51;11.40;44.70
14585;DHT22;7379;51.506;11.876;2023-04-25T14:13:18;11.40;44.70
14585;DHT22;7379;51.506;11.876;2023-04-25T14:15:44;11.40;44.90
14585;DHT22;7379;51.506;11.876;2023-04-25T14:18:11;11.40;45.00
14585;DHT22;7379;51.506;11.876;2023-04-25T14:20:39;11.40;45.10
14585;DHT22;7379;51.506;11.876;2023-04-25T14:23:06;11.40;45.40
14585;DHT22;7379;51.506;11.876;2023-04-25T14:25:33;11.30;45.50
14585;DHT22;7379;51.506;11.876;2023-04-25T14:28:01;11.40;45.80
14585;DHT22;7379;51.506;11.876;2023-04-25T14:30:27;11.40;46.00
14585;DHT22;7379;51.506;11.876;2023-04-25T14:32:54;11.30;46.10
14585;DHT22;7379;51.506;11.876;2023-04-25T14:35:21;11.40;46.30
14585;DHT22;7379;51.506;11.876;2023-04-25T14:37:49;11.40;46.30
14585;DHT22;7379;51.506;11.876;2023-04-25T14:40:16;11.40;46.30
14585;DHT22;7379;51.506;11.876;2023-04-25T14:42:43;11.40;46.30
14585;DHT22;7379;51.506;11.876;2023-04-25T14:45:11;11.30;46.30
14585;DHT22;7379;51.506;11.876;2023-04-25T14:47:38;11.30;46.50
14585;DHT22;7379;51.506;11.876;2023-04-25T14:50:06;11.40;46.60
14585;DHT22;7379;51.506;11.876;2023-04-25T14:52:34;11.40;46.70
14585;DHT22;7379;51.506;11.876;2023-04-25T14:55:02;11.40;46.60
14585;DHT22;7379;51.506;11.876;2023-04-25T14:57:30;11.40;46.50
14585;DHT22;7379;51.506;11.876;2023-04-25T14:59:57;11.40;46.40
14585;DHT22;7379;51.506;11.876;2023-04-25T15:02:24;11.40;46.20
14585;DHT22;7379;51.506;11.876;2023-04-25T15:04:51;11.40;46.20
14585;DHT22;7379;51.506;11.876;2023-04-25T15:07:18;11.40;46.20
14585;DHT22;7379;51.506;11.876;2023-04-25T15:09:45;11.30;46.20
14585;DHT22;7379;51.506;11.876;2023-04-25T15:12:13;11.30;46.30
14585;DHT22;7379;51.506;11.876;2023-04-25T15:14:40;11.30;46.70
14585;DHT22;7379;51.506;11.876;2023-04-25T15:17:07;11.30;46.80
14585;DHT22;7379;51.506;11.876;2023-04-25T15:19:33;11.30;47.00
14585;DHT22;7379;51.506;11.876;2023-04-25T15:22:00;11.30;47.30
14585;DHT22;7379;51.506;11.876;2023-04-25T15:24:29;11.30;47.40
14585;DHT22;7379;51.506;11.876;2023-04-25T15:26:56;11.30;47.50
14585;DHT22;7379;51.506;11.876;2023-04-25T15:29:25;11.30;47.60
14585;DHT22;7379;51.506;11.876;2023-04-25T15:31:52;11.30;47.80
14585;DHT22;7379;51.506;11.876;2023-04-25T15:34:19;11.20;47.80
14585;DHT22;7379;51.506;11.876;2023-04-25T15:36:47;11.20;47.80